• Join FlightAware (Why Join?)
  • Login
  • US Flag 
03:57PM EDT


 

Airport Tracker/Info


-or-


 

Live Flight TrackerFlight Track Log ✈ UAL4115 ✈ 20-Apr-2013 ✈ MMGL / GDL - KIAH

Flight Track Log - Related Links

Times and Time Zones

All times are in EDT time to prevent confusion due to time zone crossing. See the UAL4115 flight status page for this flight to view local times or setup timezone preferences in your user account.

Time Position Orientation Groundspeed Altitude Reporting Facility
EDT Latitude Longitude Course Direction KTS MPH feet Rate Location/Type
08:37AM 25.6314 -100.6219 73° East 536 617 35,000  Level Houston Center
08:38AM 25.6853 -100.4294 73° East 544 626 35,000  Level Houston Center
08:39AM 25.7289 -100.2669 73° East 547 629 35,000  Level Houston Center
08:40AM 25.7764 -100.1083 72° East 548 631 35,000  Level Houston Center
08:41AM 25.8667 -99.9867 50° Northeast 523 602 35,000  Level Houston Center
08:42AM 25.9594 -99.8739 48° Northeast 505 581 35,000  Level Houston Center
08:43AM 26.0539 -99.7594 47° Northeast 501 577 35,000  Level Houston Center
08:44AM 26.1506 -99.6472 46° Northeast 503 579 35,000  Level Houston Center
08:45AM 26.2547 -99.5464 41° Northeast 500 575 35,000  Level Houston Center
08:46AM 26.3564 -99.4447 42° Northeast 496 571 35,000  Level Houston Center
08:47AM 26.4783 -99.3275 41° Northeast 486 559 35,000  Level Houston Center
08:48AM 26.5778 -99.2292 41° Northeast 480 552 35,000  Level Houston Center
08:49AM 26.6767 -99.1292 42° Northeast 480 552 35,000  Level Houston Center
08:50AM 26.7764 -99.0308 41° Northeast 479 551 35,000  Level Houston Center
08:51AM 26.8781 -98.9303 41° Northeast 486 559 35,000  Level Houston Center
08:52AM 26.9789 -98.8278 42° Northeast 490 564 35,000  Level Houston Center
08:53AM 27.0781 -98.7278 42° Northeast 487 560 35,000  Level Houston Center
08:54AM 27.1764 -98.6292 42° Northeast 480 552 35,000  Level Houston Center
08:55AM 27.2942 -98.5103 42° Northeast 479 551 35,000  Level Houston Center
08:56AM 27.3931 -98.4111 42° Northeast 480 552 35,000  Level Houston Center
08:57AM 27.4917 -98.3092 43° Northeast 482 555 35,000  Level Houston Center
08:58AM 27.5914 -98.2078 42° Northeast 485 558 35,000  Level Houston Center
08:59AM 27.6908 -98.1056 42° Northeast 486 559 35,000  Level Houston Center
09:00AM 27.7917 -98.0033 42° Northeast 489 563 35,000  Level Houston Center
09:01AM 27.8936 -97.9008 42° Northeast 492 566 35,000  Level Houston Center
09:02AM 28.0147 -97.7764 42° Northeast 493 567 35,000  Level Houston Center
09:03AM 28.1139 -97.6742 42° Northeast 492 566 35,000  Level Houston Center
09:04AM 28.2158 -97.5700 42° Northeast 493 567 35,000  Level Houston Center
09:05AM 28.3169 -97.4644 43° Northeast 494 568 35,000  Level Houston Center
09:06AM 28.4197 -97.3592 42° Northeast 496 571 35,000 -120 Level Houston Center
09:08AM 28.5214 -97.2514 43° Northeast 501 577 34,800 -840 Descending Houston Center
09:09AM 28.6194 -97.1503 42° Northeast 480 552 33,300 -1,860 Descending Houston Center
09:10AM 28.7150 -97.0497 43° Northeast 470 541 31,100 -2,520 Descending Houston Center
09:11AM 28.8283 -96.9294 43° Northeast 467 537 28,200 -2,640 Descending Houston Center
09:12AM 28.9239 -96.8294 42° Northeast 468 539 25,800 -2,460 Descending Houston Center
09:13AM 29.0189 -96.7289 43° Northeast 469 540 23,300 -2,460 Descending Houston Center
09:14AM 29.1086 -96.6342 43° Northeast 449 517 20,900 -2,400 Descending Houston Center
09:15AM 29.1944 -96.5422 43° Northeast 432 497 18,500 -2,100 Descending Houston Center
09:16AM 29.2783 -96.4525 43° Northeast 419 482 16,600 -2,040 Descending Houston Center
09:17AM 29.3608 -96.3656 43° Northeast 411 473 14,400 -2,340 Descending Houston Center
09:17AM 29.3978 -96.3269 42° Northeast 403 464 13,500 -2,580 Descending Houston Center
09:18AM 29.4556 -96.2633 44° Northeast 395 455 11,800 -2,220 Descending Houston Center
09:19AM 29.5150 -96.2014 42° Northeast 365 420 10,200 -960 Descending Houston Center
09:20AM 29.5881 -96.1236 43° Northeast 322 371 10,000 -120 Descending Houston Center
09:21AM 29.6592 -96.0481 43° Northeast 336 387 10,000 -540 Level Houston Center
09:22AM 29.7150 -95.9889 43° Northeast 290 334 9,000 -1,200 Descending Houston Center
09:23AM 29.7803 -95.9214 42° Northeast 275 316 7,600 -1,080 Descending Houston Center
09:24AM 29.8283 -95.8700 43° Northeast 264 304 6,900 -720 Descending Houston Center
09:24AM 29.8375 -95.8556 54° Northeast 269 310 6,800 -840 Descending Houston Center
09:25AM 29.8736 -95.7878 58° Northeast 269 310 6,000 -1,140 Descending Houston Center
09:26AM 29.9058 -95.7239 60° Northeast 246 283 4,800 -1,200 Descending Houston Center
09:26AM 29.9131 -95.7131 52° Northeast 256 295 4,600 -1,200 Descending Houston Center
09:27AM 29.9483 -95.6464 59° Northeast 245 282 3,300 -900 Descending Houston Center
09:28AM 29.9814 -95.5847 58° Northeast 239 275 3,000 -240 Descending Houston Center
09:29AM 30.0072 -95.5214 65° Northeast 205 236 2,900 -600 Descending Houston Center
09:30AM 30.0064 -95.4636 91° East 170 196 1,900 -900 Descending Houston Center
09:31AM 30.0061 -95.4153 90° East 120 138 1,100 -720 Descending Houston Center
09:32AM 30.0075 -95.3708 88° East 123 142 300 -720 Descending Houston Center
09:34AM 29.9833 -95.3333 49° Northeast  Level FlightAware Approximate
09:41AM 29.9844 -95.3414 49° Northeast  Level Estimated